SLCO/CIJ METAR and TAF weather

Enter ICAO airport designator
Station Type Date Time Source
SLCO METAR 2018/12/11 18:00 UTC NOAA

SLCO 111800Z 05006KT 5000 -RA SCT017 FEW020CB 27/27 Q1013


Station Type Date Time Source
SLCO Decoded METAR 2018/12/11 18:00 UTC NOAA

Cobija, Bolivia (SLCO) 11-02S 068-47W 260M
Dec 11, 2018 - 01:00 PM EST / 2018.12.11 1800 UTC
Wind: from the NE (050 degrees) at 7 MPH (6 KT):0
Visibility: 3 mile(s):0
Sky conditions: partly cloudy
Weather: light rain; Cumulonimbus clouds observed
Temperature: 80 F (27 C)
Dew Point: 80 F (27 C)
Relative Humidity: 100%
Pressure (altimeter): 29.91 in. Hg (1013 hPa)
ob: SLCO 111800Z 05006KT 5000 -RA SCT017 FEW020CB 27/27 Q1013
cycle: 18

Station Type Date Time Source
SLCO TAF 2018/12/11 18:54 UTC NOAA

TAF TAF SLCO 111650Z 1118/1218 33010KT 9999 SCT020 BKN080 TX34/1120Z TN23 /1210Z
TEMPO 1119/1121 7000 SHRA FEW020 FEW023CB BKN080
BECMG 1123/ 1203 00000KT


Example: see airport list